Time;durP1;ratioP1;P1;durP2;ratioP2;P2;SDS_P1;SDS_P2;PMS_P1;PMS_P2;Temp;Humidity;BMP_temperature;BMP_pressure;BME280_temperature;BME280_humidity;BME280_pressure;Samples;Min_cycle;Max_cycle;Signal;HPM_P1;HPM_P2
2023/10/16 00:01:10;;;;;;;6.23;2.20;;;4.60;99.90;;;;;;5074130;28;20444;-57
2023/10/16 00:03:43;;;;;;;4.67;2.20;;;4.60;99.90;;;;;;5073644;28;20040;-50
2023/10/16 00:06:14;;;;;;;6.17;2.47;;;4.60;99.90;;;;;;5074398;28;20020;-51
2023/10/16 00:09:22;;;;;;;5.03;2.20;;;4.60;99.90;;;;;;5073799;28;20106;-52
2023/10/16 00:11:30;;;;;;;10.23;2.20;;;4.70;99.90;;;;;;5065524;28;20041;-55
2023/10/16 00:13:56;;;;;;;9.07;2.93;;;4.70;99.90;;;;;;5073396;28;20036;-49
2023/10/16 00:16:23;;;;;;;5.97;2.60;;;4.80;99.90;;;;;;5073242;28;20063;-50
2023/10/16 00:18:50;;;;;;;5.83;2.53;;;4.80;99.90;;;;;;5073378;28;20060;-52
2023/10/16 00:21:17;;;;;;;5.73;2.50;;;4.90;99.90;;;;;;5074475;28;20039;-56
2023/10/16 00:23:43;;;;;;;8.83;2.90;;;4.90;99.90;;;;;;5073180;28;20089;-51
2023/10/16 00:26:21;;;;;;;5.10;2.43;;;4.90;99.90;;;;;;5073823;28;20550;-54
2023/10/16 00:29:07;;;;;;;6.57;2.30;;;4.80;99.90;;;;;;5073497;28;20523;-53
2023/10/16 00:31:35;;;;;;;7.20;2.53;;;4.80;99.90;;;;;;5073758;28;20025;-55
2023/10/16 00:34:02;;;;;;;5.77;1.93;;;4.60;99.90;;;;;;5055482;28;20028;-53
2023/10/16 00:36:28;;;;;;;5.47;2.87;;;4.60;99.90;;;;;;5056022;28;20070;-54
2023/10/16 00:38:54;;;;;;;4.57;2.47;;;4.50;99.90;;;;;;5073675;28;20020;-51
2023/10/16 00:41:28;;;;;;;4.30;2.20;;;4.40;99.90;;;;;;5074366;28;20447;-49
2023/10/16 00:43:56;;;;;;;5.20;2.50;;;4.40;99.90;;;;;;5055079;28;20032;-50
2023/10/16 00:46:38;;;;;;;7.70;2.75;;;4.40;99.90;;;;;;5055600;28;20089;-52
2023/10/16 00:49:07;;;;;;;4.87;2.30;;;4.50;99.90;;;;;;5073056;28;20033;-53
2023/10/16 00:51:40;;;;;;;7.55;2.65;;;4.50;99.90;;;;;;5055377;28;20037;-53
2023/10/16 00:54:26;;;;;;;4.73;2.53;;;4.60;99.90;;;;;;5038305;28;20036;-51
2023/10/16 00:56:53;;;;;;;4.93;2.70;;;4.60;99.90;;;;;;5055158;28;20028;-54
2023/10/16 00:59:23;;;;;;;8.63;2.93;;;4.60;99.90;;;;;;5055242;28;20051;-56
2023/10/16 01:01:51;;;;;;;5.00;2.38;;;4.50;99.90;;;;;;5073784;28;20145;-52
2023/10/16 01:04:19;;;;;;;5.77;2.40;;;4.50;99.90;;;;;;5073282;28;20119;-53
2023/10/16 01:06:45;;;;;;;6.00;2.23;;;4.40;99.90;;;;;;5073260;28;20953;-52
2023/10/16 01:09:22;;;;;;;6.03;2.40;;;4.40;99.90;;;;;;5073113;28;20485;-54
2023/10/16 01:11:49;;;;;;;5.57;2.50;;;4.50;99.90;;;;;;5055206;28;20071;-49
2023/10/16 01:14:15;;;;;;;7.30;2.80;;;4.50;99.90;;;;;;5054608;28;20028;-52
2023/10/16 01:16:41;;;;;;;7.77;3.40;;;4.50;99.90;;;;;;5038602;28;20064;-55
2023/10/16 01:19:09;;;;;;;5.50;3.03;;;4.60;99.90;;;;;;5054745;28;20060;-54
2023/10/16 01:21:35;;;;;;;8.63;3.43;;;4.60;99.90;;;;;;5054990;28;20029;-51
2023/10/16 01:24:11;;;;;;;8.90;3.13;;;4.60;99.90;;;;;;5072885;28;20028;-50
2023/10/16 01:26:38;;;;;;;6.20;2.57;;;4.50;99.90;;;;;;5072955;28;20086;-54
2023/10/16 01:29:07;;;;;;;5.20;2.63;;;4.40;99.90;;;;;;5072873;28;20036;-54
2023/10/16 01:31:33;;;;;;;7.00;3.23;;;4.40;99.90;;;;;;5072598;28;20078;-52
2023/10/16 01:33:59;;;;;;;9.07;2.87;;;4.40;99.90;;;;;;5054942;28;20508;-52
2023/10/16 01:36:25;;;;;;;10.37;3.43;;;4.50;99.90;;;;;;5058051;28;20036;-54
2023/10/16 01:38:51;;;;;;;7.97;3.27;;;4.50;99.90;;;;;;5076784;28;20050;-53
2023/10/16 01:41:18;;;;;;;6.83;3.33;;;4.60;99.90;;;;;;5058842;28;20055;-51
2023/10/16 01:43:44;;;;;;;10.33;4.13;;;4.60;99.90;;;;;;5058317;28;20048;-53
2023/10/16 01:46:14;;;;;;;11.70;3.40;;;4.50;99.90;;;;;;5059011;28;20550;-51
2023/10/16 01:48:44;;;;;;;9.90;3.80;;;4.50;99.90;;;;;;5058471;28;20029;-53
2023/10/16 01:51:20;;;;;;;7.30;3.33;;;4.60;99.90;;;;;;5076844;28;20032;-55
2023/10/16 01:53:47;;;;;;;7.10;3.47;;;4.60;99.90;;;;;;5058542;28;20458;-54
2023/10/16 01:56:14;;;;;;;7.67;3.13;;;4.60;99.90;;;;;;5058183;28;20029;-51
2023/10/16 01:58:49;;;;;;;7.00;3.63;;;4.60;99.90;;;;;;5058262;28;20037;-51
2023/10/16 02:01:17;;;;;;;9.37;3.53;;;4.60;99.90;;;;;;5058528;28;20115;-55
2023/10/16 02:03:45;;;;;;;7.27;3.63;;;4.60;99.90;;;;;;5076893;28;20050;-54
2023/10/16 02:06:12;;;;;;;7.27;3.23;;;4.50;99.90;;;;;;5076712;28;20504;-50
2023/10/16 02:08:39;;;;;;;9.20;3.93;;;4.50;99.90;;;;;;5076644;28;20392;-54
2023/10/16 02:11:06;;;;;;;9.67;4.00;;;4.40;99.90;;;;;;5058193;28;20036;-54
2023/10/16 02:13:35;;;;;;;10.30;4.00;;;4.50;99.90;;;;;;5058259;28;20377;-55
2023/10/16 02:16:02;;;;;;;6.00;2.72;;;4.40;99.90;;;;;;5057869;28;20037;-54
2023/10/16 02:18:36;;;;;;;9.10;4.03;;;4.50;99.90;;;;;;5057647;28;20067;-51
2023/10/16 02:21:02;;;;;;;6.37;2.90;;;4.40;99.90;;;;;;5076287;28;20071;-54
2023/10/16 02:23:30;;;;;;;8.40;3.20;;;4.40;99.90;;;;;;5058036;28;20037;-52
2023/10/16 02:25:59;;;;;;;7.37;3.67;;;4.40;99.90;;;;;;5075755;28;20119;-55
2023/10/16 02:28:25;;;;;;;9.33;3.27;;;4.50;99.90;;;;;;5075701;28;20032;-50
2023/10/16 02:30:51;;;;;;;10.10;3.40;;;4.50;99.90;;;;;;5076115;28;20116;-52
2023/10/16 02:33:28;;;;;;;6.30;3.07;;;4.50;99.90;;;;;;5057608;28;20040;-50
2023/10/16 02:35:57;;;;;;;10.30;3.40;;;4.50;99.90;;;;;;5076131;28;20048;-51
2023/10/16 02:38:29;;;;;;;6.37;3.23;;;4.40;99.90;;;;;;5075556;28;20031;-53
2023/10/16 02:41:04;;;;;;;7.67;4.07;;;4.50;99.90;;;;;;5075835;28;20511;-53
2023/10/16 02:43:31;;;;;;;7.10;3.60;;;4.50;99.90;;;;;;5075454;28;20489;-52
2023/10/16 02:46:01;;;;;;;11.50;3.63;;;4.50;99.90;;;;;;5075872;28;20043;-55
2023/10/16 02:48:27;;;;;;;9.37;3.57;;;4.60;99.90;;;;;;5057189;28;20094;-54
2023/10/16 02:50:59;;;;;;;10.20;4.10;;;4.50;99.90;;;;;;5075316;28;20115;-51
2023/10/16 02:53:27;;;;;;;7.37;3.87;;;4.50;99.90;;;;;;5057421;28;20360;-55
2023/10/16 02:55:57;;;;;;;9.40;4.60;;;4.50;99.90;;;;;;5057671;28;20541;-54
2023/10/16 02:58:27;;;;;;;10.17;3.90;;;4.40;99.90;;;;;;5057260;28;20040;-53
2023/10/16 03:00:55;;;;;;;9.23;4.10;;;4.40;99.90;;;;;;5075739;28;20056;-54
2023/10/16 03:03:31;;;;;;;8.63;3.60;;;4.40;99.90;;;;;;5057159;28;20044;-54
2023/10/16 03:05:59;;;;;;;10.37;4.43;;;4.50;99.90;;;;;;5075600;28;20435;-53
2023/10/16 03:08:31;;;;;;;8.00;4.03;;;4.50;99.90;;;;;;5057077;28;20052;-52
2023/10/16 03:10:58;;;;;;;13.17;5.13;;;4.50;99.90;;;;;;5057174;28;20032;-54
2023/10/16 03:13:25;;;;;;;9.83;4.30;;;4.40;99.90;;;;;;5056945;28;20043;-53
2023/10/16 03:16:04;;;;;;;11.43;4.77;;;4.30;99.90;;;;;;5057066;28;20029;-51
2023/10/16 03:18:30;;;;;;;9.77;4.23;;;4.30;99.90;;;;;;5056666;28;20033;-52
2023/10/16 03:21:26;;;;;;;10.37;4.47;;;4.40;99.90;;;;;;5057303;28;20107;-52
2023/10/16 03:23:52;;;;;;;9.07;4.60;;;4.40;99.90;;;;;;5056525;28;20028;-53
2023/10/16 03:26:27;;;;;;;7.87;4.03;;;4.40;99.90;;;;;;5056617;28;20040;-50
2023/10/16 03:28:54;;;;;;;9.23;4.30;;;4.50;99.90;;;;;;5075000;28;20119;-53
2023/10/16 03:31:23;;;;;;;10.40;4.50;;;4.50;99.90;;;;;;5074864;28;20531;-50
2023/10/16 03:33:53;;;;;;;11.43;5.53;;;4.40;99.90;;;;;;5074099;28;20037;-51
2023/10/16 03:36:19;;;;;;;9.23;3.90;;;4.40;99.90;;;;;;5056414;28;20036;-49
2023/10/16 03:38:45;;;;;;;8.33;3.97;;;4.50;99.90;;;;;;5056605;28;20037;-49
2023/10/16 03:41:19;;;;;;;9.77;4.07;;;4.50;99.90;;;;;;5075194;28;20504;-49
2023/10/16 03:43:58;;;;;;;10.87;4.77;;;4.50;99.90;;;;;;5074074;28;20115;-51
2023/10/16 03:46:27;;;;;;;8.35;3.67;;;4.50;99.90;;;;;;5074417;28;20044;-53
2023/10/16 03:48:54;;;;;;;10.07;4.22;;;4.50;99.90;;;;;;5073970;28;20028;-53
2023/10/16 03:51:21;;;;;;;11.03;4.30;;;4.60;99.90;;;;;;5074183;28;20043;-51
2023/10/16 03:53:49;;;;;;;10.87;4.63;;;4.50;99.90;;;;;;5074022;28;20542;-49
2023/10/16 03:56:16;;;;;;;9.20;4.07;;;4.50;99.90;;;;;;5074113;28;20047;-54
2023/10/16 03:58:43;;;;;;;15.13;5.47;;;4.60;99.90;;;;;;5073412;28;20066;-54
2023/10/16 04:01:10;;;;;;;10.80;4.07;;;4.50;99.90;;;;;;5074098;28;20044;-53
2023/10/16 04:03:46;;;;;;;9.90;4.00;;;4.60;99.90;;;;;;5074229;28;20028;-54
2023/10/16 04:06:13;;;;;;;10.60;3.90;;;4.50;99.90;;;;;;5074062;28;20109;-54
2023/10/16 04:08:38;;;;;;;11.53;4.13;;;4.50;99.90;;;;;;5073957;28;20059;-51
2023/10/16 04:11:04;;;;;;;9.13;3.93;;;4.40;99.90;;;;;;5074181;28;20028;-53
2023/10/16 04:13:32;;;;;;;7.33;4.10;;;4.40;99.90;;;;;;5073469;28;20082;-50
2023/10/16 04:18:30;;;;;;;8.33;4.13;;;4.40;99.90;;;;;;5073882;28;20450;-49
2023/10/16 04:31:44;;;;;;;10.87;3.77;;;4.30;99.90;;;;;;5073783;28;20033;-53
2023/10/16 04:34:24;;;;;;;8.93;4.13;;;4.40;99.90;;;;;;5073157;28;20031;-53
2023/10/16 04:36:54;;;;;;;7.90;3.70;;;4.40;99.90;;;;;;5073797;28;20447;-49
2023/10/16 04:47:48;;;;;;;8.57;3.87;;;4.30;99.90;;;;;;5073224;28;20041;-51
2023/10/16 04:50:27;;;;;;;9.90;4.03;;;4.30;99.90;;;;;;5073587;28;20048;-53
2023/10/16 05:03:44;;;;;;;10.37;4.03;;;4.20;99.90;;;;;;5073380;28;20111;-51
2023/10/16 05:11:36;;;;;;;9.07;3.73;;;4.20;99.90;;;;;;5076259;28;20115;-54
2023/10/16 05:14:20;;;;;;;9.40;4.00;;;4.20;99.90;;;;;;5077000;28;20028;-54
2023/10/16 05:22:09;;;;;;;11.27;4.88;;;4.10;99.90;;;;;;5077315;28;20151;-54
2023/10/16 06:14:14;;;;;;;10.03;5.00;;;4.30;99.90;;;;;;5075918;28;20029;-54
2023/10/16 06:16:46;;;;;;;12.80;4.97;;;4.30;99.90;;;;;;5076297;28;20178;-54
2023/10/16 06:19:17;;;;;;;12.33;5.30;;;4.40;99.90;;;;;;5076122;28;20056;-53
2023/10/16 06:21:47;;;;;;;11.07;4.80;;;4.40;99.90;;;;;;5075366;28;20040;-53
2023/10/16 06:24:28;;;;;;;12.57;4.77;;;4.30;99.90;;;;;;5075864;28;20492;-54
2023/10/16 06:26:59;;;;;;;8.77;4.10;;;4.40;99.90;;;;;;5076272;28;20040;-54
2023/10/16 06:29:34;;;;;;;12.33;4.43;;;4.40;99.90;;;;;;5075646;28;20473;-53
2023/10/16 06:32:06;;;;;;;13.07;5.23;;;4.40;99.90;;;;;;5075905;28;20098;-52
2023/10/16 06:34:33;;;;;;;12.03;5.60;;;4.40;99.90;;;;;;5075809;28;20413;-54
2023/10/16 06:37:05;;;;;;;11.87;4.67;;;4.50;99.90;;;;;;5076050;28;20033;-54
2023/10/16 06:39:35;;;;;;;10.23;4.70;;;4.50;99.90;;;;;;5075321;28;20097;-53
2023/10/16 06:42:04;;;;;;;8.33;4.33;;;4.50;99.90;;;;;;5057539;28;20032;-55
2023/10/16 06:44:36;;;;;;;8.10;4.43;;;4.50;99.90;;;;;;5057695;28;20038;-54
2023/10/16 06:47:02;;;;;;;12.33;4.60;;;4.50;99.90;;;;;;5075913;28;20107;-55
2023/10/16 06:49:35;;;;;;;11.70;4.73;;;4.50;99.90;;;;;;5075744;28;20040;-51
2023/10/16 06:52:05;;;;;;;10.47;4.80;;;4.50;99.90;;;;;;5075654;28;20028;-53
2023/10/16 06:54:32;;;;;;;10.40;4.57;;;4.60;99.90;;;;;;5074687;28;20076;-54
2023/10/16 06:57:06;;;;;;;8.50;4.90;;;4.60;99.90;;;;;;5075452;28;20059;-53
2023/10/16 06:59:37;;;;;;;15.53;5.23;;;4.70;99.90;;;;;;5075117;28;20036;-54
2023/10/16 07:02:02;;;;;;;16.67;4.77;;;4.70;99.90;;;;;;5075014;28;20033;-53
2023/10/16 07:04:29;;;;;;;13.50;5.60;;;4.70;99.90;;;;;;5075009;28;20484;-52
2023/10/16 07:06:57;;;;;;;12.17;4.87;;;4.80;99.90;;;;;;5056349;28;20434;-53
2023/10/16 07:10:13;;;;;;;12.33;4.97;;;4.90;99.90;;;;;;5075276;28;20093;-54
2023/10/16 07:12:17;;;;;;;11.50;5.07;;;5.00;99.90;;;;;;5067244;28;20497;-53
2023/10/16 07:14:55;;;;;;;12.40;5.77;;;5.00;99.90;;;;;;5074936;28;20040;-54
2023/10/16 07:17:24;;;;;;;13.03;5.57;;;5.10;99.90;;;;;;5075068;28;20079;-53
2023/10/16 07:20:17;;;;;;;10.35;5.13;;;5.10;99.90;;;;;;5074988;28;20044;-54
2023/10/16 07:22:39;;;;;;;12.77;5.10;;;5.20;99.90;;;;;;5074064;28;20079;-54
2023/10/16 07:25:24;;;;;;;9.27;4.40;;;5.30;99.90;;;;;;5074840;28;20481;-54
2023/10/16 07:27:57;;;;;;;11.07;5.47;;;5.30;99.90;;;;;;5074789;28;20481;-55
2023/10/16 07:30:25;;;;;;;13.47;5.40;;;5.40;99.90;;;;;;5074529;28;20032;-54
2023/10/16 07:32:51;;;;;;;14.13;6.03;;;5.50;99.90;;;;;;5074087;28;20036;-55
2023/10/16 07:35:18;;;;;;;11.20;5.70;;;5.50;99.90;;;;;;5074864;28;20070;-54
2023/10/16 07:37:48;;;;;;;11.83;5.53;;;5.60;99.90;;;;;;5074234;28;20029;-54
2023/10/16 07:40:20;;;;;;;12.80;5.50;;;5.70;99.90;;;;;;5074675;28;20476;-52
2023/10/16 07:42:49;;;;;;;11.63;6.20;;;5.90;99.90;;;;;;5074710;28;20041;-54
2023/10/16 07:45:15;;;;;;;13.23;5.53;;;6.00;99.90;;;;;;5074412;28;20063;-59
2023/10/16 07:47:41;;;;;;;14.67;6.07;;;6.00;99.90;;;;;;5074792;28;20063;-54
2023/10/16 07:50:11;;;;;;;12.87;5.30;;;6.10;99.90;;;;;;5074496;28;20037;-54
2023/10/16 07:52:36;;;;;;;12.57;5.90;;;6.10;99.90;;;;;;5074696;28;20043;-54
2023/10/16 07:55:03;;;;;;;14.70;6.70;;;6.10;99.90;;;;;;5074102;28;20028;-52
2023/10/16 07:57:32;;;;;;;14.30;5.60;;;6.20;99.90;;;;;;5074602;28;20431;-54
2023/10/16 08:00:06;;;;;;;13.63;5.90;;;6.20;99.90;;;;;;5073801;28;20032;-55
2023/10/16 08:02:44;;;;;;;13.73;6.60;;;6.30;99.90;;;;;;5074032;28;20035;-51
2023/10/16 08:05:15;;;;;;;15.97;6.97;;;6.40;99.90;;;;;;5073765;28;20035;-54
2023/10/16 08:07:47;;;;;;;14.67;6.33;;;6.50;99.90;;;;;;5074001;28;20062;-53
2023/10/16 08:12:58;;;;;;;17.87;6.83;;;6.60;99.90;;;;;;5073755;28;20393;-55
2023/10/16 08:15:27;;;;;;;13.17;6.87;;;6.60;99.90;;;;;;5073769;28;20063;-54
2023/10/16 08:17:53;;;;;;;15.73;7.40;;;6.60;99.90;;;;;;5073367;28;20039;-51
2023/10/16 08:20:19;;;;;;;16.13;7.50;;;6.60;99.90;;;;;;5056047;28;20056;-52
2023/10/16 08:22:46;;;;;;;17.97;8.37;;;6.70;99.90;;;;;;5073357;28;20393;-55
2023/10/16 08:25:30;;;;;;;19.30;7.83;;;6.70;99.90;;;;;;5073111;28;20463;-53
2023/10/16 08:27:58;;;;;;;15.67;7.90;;;6.70;99.90;;;;;;5073390;28;20032;-55
2023/10/16 08:33:07;;;;;;;19.33;8.60;;;6.70;99.90;;;;;;5071907;28;20104;-52
2023/10/16 08:35:41;;;;;;;22.40;8.77;;;6.80;99.90;;;;;;5072513;28;20158;-52
2023/10/16 08:38:12;;;;;;;18.87;8.00;;;6.90;99.90;;;;;;5072383;28;20231;-53
2023/10/16 08:40:42;;;;;;;21.70;8.37;;;6.90;99.90;;;;;;5073000;28;20036;-52
2023/10/16 08:43:09;;;;;;;20.70;8.30;;;7.00;99.90;;;;;;5072504;28;20151;-51
2023/10/16 08:45:44;;;;;;;15.53;8.70;;;7.10;99.90;;;;;;5072541;28;20057;-52
2023/10/16 08:48:10;;;;;;;17.37;8.30;;;7.10;99.90;;;;;;5072915;28;20028;-51
2023/10/16 08:50:43;;;;;;;18.63;8.17;;;7.30;99.90;;;;;;5072681;28;20028;-50
2023/10/16 08:55:56;;;;;;;15.23;7.60;;;7.70;99.90;;;;;;5073017;28;20028;-52
2023/10/16 08:58:22;;;;;;;12.70;7.00;;;7.80;99.90;;;;;;5072525;28;20111;-52
2023/10/16 09:00:51;;;;;;;17.50;7.83;;;8.00;99.90;;;;;;5072754;28;20039;-53
2023/10/16 09:03:20;;;;;;;17.60;7.82;;;8.20;99.90;;;;;;5072808;28;20044;-51
2023/10/16 09:05:46;;;;;;;13.48;7.60;;;8.40;99.90;;;;;;5072540;28;20039;-52
2023/10/16 09:08:14;;;;;;;15.57;8.10;;;8.70;99.90;;;;;;5072353;28;20029;-51
2023/10/16 09:10:41;;;;;;;21.60;7.47;;;8.90;99.90;;;;;;5072908;28;20020;-53
2023/10/16 09:13:13;;;;;;;15.80;7.63;;;9.10;99.90;;;;;;5055300;28;20071;-53
2023/10/16 09:15:45;;;;;;;12.77;6.33;;;9.30;99.90;;;;;;5072881;28;20064;-50
2023/10/16 09:18:13;;;;;;;12.87;6.57;;;9.60;99.90;;;;;;5073192;28;20086;-50
2023/10/16 09:20:41;;;;;;;13.30;5.87;;;9.80;99.90;;;;;;5073060;28;20036;-52
2023/10/16 09:23:13;;;;;;;11.27;5.93;;;10.00;99.90;;;;;;5073105;28;20073;-52
2023/10/16 09:25:47;;;;;;;13.03;6.23;;;10.10;99.90;;;;;;5072768;28;20062;-49
2023/10/16 09:28:19;;;;;;;11.83;5.70;;;10.30;99.90;;;;;;5072889;28;20029;-52
2023/10/16 09:30:48;;;;;;;10.90;5.23;;;10.40;99.90;;;;;;5072762;28;20033;-49
2023/10/16 09:33:15;;;;;;;12.10;6.27;;;10.70;99.90;;;;;;5072339;28;20029;-50
2023/10/16 09:35:44;;;;;;;12.23;5.77;;;11.00;99.90;;;;;;5055233;28;20043;-50
2023/10/16 09:38:17;;;;;;;9.02;5.20;;;12.00;99.90;;;;;;5055267;28;20475;-52
2023/10/16 09:40:58;;;;;;;10.77;4.80;;;13.10;99.90;;;;;;5072223;28;20055;-53
2023/10/16 09:43:26;;;;;;;10.18;4.95;;;14.30;99.90;;;;;;5071824;28;20047;-51
2023/10/16 09:48:39;;;;;;;9.43;4.85;;;16.70;99.90;;;;;;5072057;28;20082;-54
2023/10/16 09:51:09;;;;;;;9.25;5.00;;;17.00;99.90;;;;;;5072124;28;20082;-52
2023/10/16 09:53:35;;;;;;;9.10;4.88;;;17.50;99.90;;;;;;5072550;28;20477;-55
2023/10/16 09:56:02;;;;;;;7.93;4.82;;;17.90;99.90;;;;;;5073084;28;20127;-54
2023/10/16 09:58:34;;;;;;;8.27;4.60;;;18.00;99.10;;;;;;5075647;28;20504;-54
2023/10/16 10:01:07;;;;;;;8.90;4.60;;;17.60;99.70;;;;;;5075559;28;20062;-53
2023/10/16 10:03:35;;;;;;;8.13;4.05;;;17.40;99.60;;;;;;5075996;28;20032;-54
2023/10/16 10:06:19;;;;;;;7.80;4.70;;;17.50;99.80;;;;;;5075846;28;20056;-54
2023/10/16 10:11:38;;;;;;;10.68;4.68;;;16.90;99.90;;;;;;5076003;28;20032;-51
2023/10/16 10:14:29;;;;;;;11.10;4.70;;;16.80;99.90;;;;;;5057249;28;20038;-50
2023/10/16 10:17:00;;;;;;;7.40;4.10;;;16.00;99.90;;;;;;5075730;28;20435;-51
2023/10/16 10:19:35;;;;;;;9.65;4.65;;;15.50;99.90;;;;;;5075317;28;20050;-53
2023/10/16 10:22:22;;;;;;;11.23;4.60;;;15.20;99.90;;;;;;5058014;28;20028;-52
2023/10/16 10:25:07;;;;;;;8.40;4.30;;;15.00;99.90;;;;;;5075292;28;20119;-52
2023/10/16 10:27:34;;;;;;;10.38;5.22;;;14.80;99.90;;;;;;5075423;28;20047;-53
2023/10/16 10:30:03;;;;;;;9.75;4.63;;;14.70;99.90;;;;;;5075508;28;20393;-51
2023/10/16 10:32:32;;;;;;;;;;;14.80;99.90;;;;;;5076640;28;20036;-52
2023/10/16 10:35:29;;;;;;;9.55;4.72;;;14.60;99.90;;;;;;5075279;28;19919;-53
2023/10/16 10:38:20;;;;;;;12.65;4.70;;;14.80;99.90;;;;;;5075584;28;20307;-49
2023/10/16 10:41:04;;;;;;;9.52;4.22;;;14.60;99.90;;;;;;5074845;28;20028;-54
2023/10/16 10:43:47;;;;;;;7.78;4.18;;;14.30;99.90;;;;;;5075610;28;20044;-51
2023/10/16 10:46:36;;;;;;;10.80;4.50;;;14.30;99.90;;;;;;5075290;28;20033;-54
2023/10/16 10:49:01;;;;;;;12.63;4.32;;;14.10;99.90;;;;;;5074409;28;20055;-54
2023/10/16 10:51:34;;;;;;;10.18;4.20;;;13.90;99.90;;;;;;5074928;28;20466;-51
2023/10/16 10:54:03;;;;;;;10.05;4.65;;;13.90;99.90;;;;;;5074669;28;20142;-52
2023/10/16 10:56:47;;;;;;;9.50;3.85;;;13.70;99.90;;;;;;5074765;28;20047;-54
2023/10/16 10:59:32;;;;;;;10.23;4.68;;;13.60;99.90;;;;;;5074462;28;20430;-54
2023/10/16 11:02:09;;;;;;;9.57;4.70;;;13.50;99.90;;;;;;5074454;28;20075;-54
2023/10/16 11:04:35;;;;;;;10.93;4.40;;;13.60;99.90;;;;;;5074125;28;20036;-55
2023/10/16 11:07:11;;;;;;;9.90;4.53;;;13.70;99.90;;;;;;5075012;28;20040;-54
2023/10/16 11:09:42;;;;;;;8.20;3.88;;;13.60;99.90;;;;;;5074942;28;20087;-55
2023/10/16 11:12:08;;;;;;;8.13;3.80;;;13.40;99.90;;;;;;5074230;28;20138;-55
2023/10/16 11:14:35;;;;;;;11.15;4.15;;;13.30;99.90;;;;;;5073725;28;20107;-54
2023/10/16 11:17:05;;;;;;;12.35;4.30;;;13.30;99.90;;;;;;5074715;28;20035;-55
2023/10/16 11:19:44;;;;;;;10.10;4.32;;;13.40;99.90;;;;;;5074244;28;20033;-51
2023/10/16 11:22:10;;;;;;;;;;;13.50;99.90;;;;;;5075033;28;20178;-55
2023/10/16 11:24:36;;;;;;;7.68;4.00;;;13.70;99.90;;;;;;5073946;28;20356;-53
2023/10/16 11:27:05;;;;;;;9.43;4.47;;;13.70;99.90;;;;;;5056330;28;20496;-55
2023/10/16 11:29:33;;;;;;;14.18;4.78;;;13.80;99.90;;;;;;5074336;28;20036;-52
2023/10/16 11:32:06;;;;;;;13.20;4.50;;;13.70;99.90;;;;;;5074491;28;20070;-52
2023/10/16 11:34:45;;;;;;;11.38;4.55;;;13.60;99.90;;;;;;5074245;28;20045;-54
2023/10/16 11:37:14;;;;;;;11.20;4.65;;;13.30;99.90;;;;;;5073910;28;20036;-50
2023/10/16 11:39:44;;;;;;;13.15;5.38;;;13.20;99.90;;;;;;5073744;28;20032;-54
2023/10/16 11:42:13;;;;;;;11.02;4.82;;;13.10;99.90;;;;;;5055952;28;20123;-49
2023/10/16 11:44:40;;;;;;;12.82;5.05;;;13.30;99.90;;;;;;5073899;28;20446;-51
2023/10/16 11:47:09;;;;;;;15.68;6.47;;;13.40;99.90;;;;;;5073545;28;20499;-51
2023/10/16 11:49:38;;;;;;;13.57;6.22;;;13.50;99.90;;;;;;5073383;28;20544;-50
2023/10/16 11:52:20;;;;;;;16.58;6.85;;;13.80;99.90;;;;;;5073493;28;20032;-54
2023/10/16 11:54:58;;;;;;;18.55;8.23;;;14.10;99.90;;;;;;5073312;28;20031;-54
2023/10/16 11:57:24;;;;;;;14.80;6.55;;;14.00;99.90;;;;;;5072948;28;20017;-53
2023/10/16 11:59:51;;;;;;;17.20;7.68;;;14.10;99.90;;;;;;5073359;28;20064;-52
2023/10/16 12:02:23;;;;;;;13.23;6.85;;;13.90;99.90;;;;;;5072880;28;20549;-53
2023/10/16 12:04:49;;;;;;;15.23;8.05;;;14.00;99.90;;;;;;5072747;28;20075;-53
2023/10/16 12:07:15;;;;;;;14.98;7.47;;;14.10;99.90;;;;;;5073221;28;20500;-53
2023/10/16 12:09:48;;;;;;;16.30;7.28;;;14.30;99.90;;;;;;5072803;28;20029;-53
2023/10/16 12:12:20;;;;;;;18.13;7.97;;;14.40;99.90;;;;;;5072975;28;20036;-55
2023/10/16 12:14:48;;;;;;;15.52;8.00;;;14.00;99.90;;;;;;5072694;28;20111;-57
2023/10/16 12:17:15;;;;;;;12.77;6.68;;;13.70;99.90;;;;;;5073302;28;20032;-53
2023/10/16 12:19:41;;;;;;;14.45;7.60;;;13.60;99.90;;;;;;5072436;28;20097;-53
2023/10/16 12:22:10;;;;;;;16.75;7.75;;;13.60;99.90;;;;;;5073105;28;20509;-51
2023/10/16 12:24:35;;;;;;;14.77;6.80;;;13.50;99.90;;;;;;5072957;28;20421;-53
2023/10/16 12:27:04;;;;;;;17.88;8.05;;;13.60;99.90;;;;;;5072669;28;20040;-53
2023/10/16 12:29:31;;;;;;;13.55;7.18;;;13.80;99.90;;;;;;5072632;28;20425;-52
2023/10/16 12:31:58;;;;;;;16.80;8.18;;;14.10;99.90;;;;;;5072828;28;20040;-52
2023/10/16 12:34:24;;;;;;;14.38;7.70;;;14.20;99.90;;;;;;5072736;28;20039;-53
2023/10/16 12:36:50;;;;;;;15.05;7.47;;;14.20;99.90;;;;;;5073018;28;20103;-52
2023/10/16 12:39:24;;;;;;;16.00;7.35;;;14.00;99.90;;;;;;5072726;28;20537;-52
2023/10/16 12:41:54;;;;;;;16.70;8.13;;;14.00;99.90;;;;;;5073086;28;20512;-52
2023/10/16 12:44:19;;;;;;;15.00;7.00;;;14.10;99.90;;;;;;5055215;28;20039;-55
2023/10/16 12:46:45;;;;;;;13.20;6.85;;;14.20;99.90;;;;;;5072818;28;20032;-55
2023/10/16 12:49:11;;;;;;;14.32;6.60;;;14.20;99.90;;;;;;5072436;28;20404;-53
2023/10/16 12:51:38;;;;;;;13.27;6.78;;;14.00;99.90;;;;;;5072367;28;20081;-55
2023/10/16 12:54:06;;;;;;;12.45;6.03;;;13.80;99.90;;;;;;5072573;28;20043;-53
2023/10/16 12:56:32;;;;;;;11.70;6.15;;;13.60;99.90;;;;;;5072391;28;20496;-55
2023/10/16 12:59:02;;;;;;;13.05;6.78;;;13.60;99.90;;;;;;5072391;28;20028;-53
2023/10/16 13:01:27;;;;;;;13.55;6.60;;;13.70;99.90;;;;;;5072275;28;20107;-52
2023/10/16 13:04:35;;;;;;;15.18;6.95;;;13.80;99.90;;;;;;5072112;28;20532;-53
2023/10/16 13:06:43;;;;;;;11.95;6.30;;;14.20;99.90;;;;;;5046407;28;20036;-52
2023/10/16 13:09:17;;;;;;;17.85;7.10;;;14.30;99.90;;;;;;5072092;28;20028;-55
2023/10/16 13:11:44;;;;;;;13.77;5.78;;;14.50;99.90;;;;;;5072075;28;20553;-55
2023/10/16 13:14:11;;;;;;;12.45;6.05;;;14.90;99.90;;;;;;5072252;28;20041;-53
2023/10/16 13:16:39;;;;;;;16.20;7.03;;;15.20;99.90;;;;;;5072289;28;20033;-52
2023/10/16 13:19:09;;;;;;;11.70;5.72;;;15.00;99.90;;;;;;5071845;28;20600;-54
2023/10/16 13:21:35;;;;;;;12.23;5.90;;;14.70;99.90;;;;;;5072445;28;20025;-54
2023/10/16 13:24:12;;;;;;;13.32;5.82;;;14.60;99.90;;;;;;5071964;28;20048;-55
2023/10/16 13:26:39;;;;;;;12.77;6.00;;;14.50;99.90;;;;;;5072031;28;20315;-54
2023/10/16 13:29:07;;;;;;;11.95;5.88;;;14.30;99.90;;;;;;5072080;28;20047;-55
2023/10/16 13:31:40;;;;;;;15.50;5.70;;;14.00;99.90;;;;;;5074051;28;20052;-55
2023/10/16 13:34:10;;;;;;;15.15;5.68;;;13.60;99.90;;;;;;5075787;28;20462;-55
2023/10/16 13:36:37;;;;;;;12.63;5.72;;;13.50;99.90;;;;;;5075847;28;20039;-54
2023/10/16 13:39:08;;;;;;;13.57;5.45;;;13.30;99.90;;;;;;5076072;28;20473;-53
2023/10/16 13:41:55;;;;;;;13.07;5.85;;;13.10;99.90;;;;;;5075789;28;20028;-54
2023/10/16 13:44:23;;;;;;;10.80;5.35;;;13.00;99.90;;;;;;5075529;28;20039;-51
2023/10/16 13:46:49;;;;;;;10.33;5.27;;;12.90;99.90;;;;;;5076216;28;20036;-50
2023/10/16 13:49:17;;;;;;;11.10;5.50;;;12.90;99.90;;;;;;5075786;28;20025;-54
2023/10/16 13:51:44;;;;;;;15.32;6.53;;;13.10;99.90;;;;;;5075822;28;20040;-54
2023/10/16 13:54:13;;;;;;;14.77;5.80;;;13.10;99.90;;;;;;5076182;28;20051;-50
2023/10/16 13:56:45;;;;;;;12.07;6.50;;;13.10;99.90;;;;;;5041698;28;20032;-50
2023/10/16 13:59:11;;;;;;;12.38;5.15;;;13.10;99.90;;;;;;5076067;28;20028;-52
2023/10/16 14:01:43;;;;;;;14.85;5.68;;;13.10;99.90;;;;;;5076243;28;20020;-52
2023/10/16 14:04:21;;;;;;;11.18;5.60;;;13.00;99.90;;;;;;5075958;28;20040;-53
2023/10/16 14:06:54;;;;;;;16.80;5.37;;;12.90;99.90;;;;;;5076288;28;20028;-51
2023/10/16 14:09:32;;;;;;;14.70;6.60;;;12.90;99.90;;;;;;5075991;28;20062;-53
2023/10/16 14:11:59;;;;;;;11.25;5.00;;;13.00;99.90;;;;;;5057984;28;20059;-52
2023/10/16 14:14:26;;;;;;;16.38;6.00;;;13.10;99.90;;;;;;5076013;28;20093;-51
2023/10/16 14:17:02;;;;;;;14.10;6.03;;;13.10;99.90;;;;;;5076241;28;20036;-52
2023/10/16 14:19:29;;;;;;;12.40;5.38;;;13.00;99.90;;;;;;5075798;28;20032;-54
2023/10/16 14:21:55;;;;;;;11.50;5.10;;;13.10;99.90;;;;;;5075894;28;20112;-51
2023/10/16 14:24:24;;;;;;;13.00;5.63;;;13.10;99.90;;;;;;5076168;28;20032;-52
2023/10/16 14:26:56;;;;;;;12.00;5.43;;;13.10;99.90;;;;;;5075438;28;20056;-50
2023/10/16 14:29:22;;;;;;;10.30;4.85;;;13.10;99.90;;;;;;5075711;28;20060;-53
2023/10/16 14:31:51;;;;;;;11.43;5.80;;;13.00;99.90;;;;;;5075813;28;20040;-50
2023/10/16 14:34:21;;;;;;;11.05;4.75;;;13.00;99.90;;;;;;5075222;28;20032;-54
2023/10/16 14:36:48;;;;;;;11.95;5.10;;;13.00;99.90;;;;;;5075830;28;20078;-53
2023/10/16 14:39:14;;;;;;;12.30;5.18;;;13.00;99.90;;;;;;5075315;28;20094;-52
2023/10/16 14:41:44;;;;;;;11.57;5.22;;;13.00;99.90;;;;;;5075410;28;20029;-51
2023/10/16 14:44:12;;;;;;;11.48;4.85;;;13.10;99.90;;;;;;5075729;28;20029;-51
2023/10/16 14:46:39;;;;;;;11.57;4.90;;;13.10;99.90;;;;;;5075555;28;20064;-50
2023/10/16 14:49:08;;;;;;;11.93;4.75;;;13.10;99.90;;;;;;5075038;28;20028;-50
2023/10/16 14:51:40;;;;;;;;;;;13.00;99.90;;;;;;5058050;28;20075;-53